sensor_id;sensor_type;location;lat;lon;timestamp;temperature;humidity
18906;DHT22;9585;51.018;4.282;2023-08-30T00:00:03;11.70;99.90
18906;DHT22;9585;51.018;4.282;2023-08-30T00:02:31;11.80;99.90
18906;DHT22;9585;51.018;4.282;2023-08-30T00:04:58;11.80;99.90
18906;DHT22;9585;51.018;4.282;2023-08-30T00:07:26;11.90;99.90
18906;DHT22;9585;51.018;4.282;2023-08-30T00:09:56;11.90;99.90
18906;DHT22;9585;51.018;4.282;2023-08-30T00:12:24;11.90;99.90
18906;DHT22;9585;51.018;4.282;2023-08-30T00:14:52;12.00;99.90
18906;DHT22;9585;51.018;4.282;2023-08-30T00:17:20;12.00;99.90
18906;DHT22;9585;51.018;4.282;2023-08-30T00:19:47;12.10;99.90
18906;DHT22;9585;51.018;4.282;2023-08-30T00:22:16;12.10;99.90
18906;DHT22;9585;51.018;4.282;2023-08-30T00:24:43;12.20;99.90
18906;DHT22;9585;51.018;4.282;2023-08-30T00:27:12;12.20;99.90
18906;DHT22;9585;51.018;4.282;2023-08-30T00:29:39;12.20;99.90
18906;DHT22;9585;51.018;4.282;2023-08-30T00:32:07;12.20;99.90
18906;DHT22;9585;51.018;4.282;2023-08-30T00:34:35;12.20;99.90
18906;DHT22;9585;51.018;4.282;2023-08-30T00:37:03;12.20;99.90
18906;DHT22;9585;51.018;4.282;2023-08-30T00:39:31;12.30;99.90
18906;DHT22;9585;51.018;4.282;2023-08-30T00:41:58;12.30;99.90
18906;DHT22;9585;51.018;4.282;2023-08-30T00:44:32;12.20;99.90
18906;DHT22;9585;51.018;4.282;2023-08-30T00:47:00;12.30;99.90
18906;DHT22;9585;51.018;4.282;2023-08-30T00:49:29;12.20;99.90
18906;DHT22;9585;51.018;4.282;2023-08-30T00:51:57;12.20;99.90
18906;DHT22;9585;51.018;4.282;2023-08-30T00:54:26;12.20;99.90
18906;DHT22;9585;51.018;4.282;2023-08-30T00:56:54;12.20;99.90
18906;DHT22;9585;51.018;4.282;2023-08-30T00:59:22;12.20;99.90
18906;DHT22;9585;51.018;4.282;2023-08-30T01:01:51;12.20;99.90
18906;DHT22;9585;51.018;4.282;2023-08-30T01:04:19;12.20;99.90
18906;DHT22;9585;51.018;4.282;2023-08-30T01:06:48;12.30;99.90
18906;DHT22;9585;51.018;4.282;2023-08-30T01:09:16;12.30;99.90
18906;DHT22;9585;51.018;4.282;2023-08-30T01:11:48;12.20;99.90
18906;DHT22;9585;51.018;4.282;2023-08-30T01:14:21;12.20;99.90
18906;DHT22;9585;51.018;4.282;2023-08-30T01:16:51;12.20;99.90
18906;DHT22;9585;51.018;4.282;2023-08-30T01:19:30;12.20;99.90
18906;DHT22;9585;51.018;4.282;2023-08-30T01:22:12;12.20;99.90
18906;DHT22;9585;51.018;4.282;2023-08-30T01:24:45;12.10;99.90
18906;DHT22;9585;51.018;4.282;2023-08-30T01:27:17;12.10;99.90
18906;DHT22;9585;51.018;4.282;2023-08-30T01:29:46;12.10;99.90
18906;DHT22;9585;51.018;4.282;2023-08-30T01:32:14;12.00;99.90
18906;DHT22;9585;51.018;4.282;2023-08-30T01:34:43;12.00;99.90
18906;DHT22;9585;51.018;4.282;2023-08-30T01:37:13;12.10;99.90
18906;DHT22;9585;51.018;4.282;2023-08-30T01:39:42;12.00;99.90
18906;DHT22;9585;51.018;4.282;2023-08-30T01:42:10;12.00;99.90
18906;DHT22;9585;51.018;4.282;2023-08-30T01:44:42;12.10;99.90
18906;DHT22;9585;51.018;4.282;2023-08-30T01:47:11;12.10;99.90
18906;DHT22;9585;51.018;4.282;2023-08-30T01:49:39;12.10;99.90
18906;DHT22;9585;51.018;4.282;2023-08-30T01:52:07;12.20;99.90
18906;DHT22;9585;51.018;4.282;2023-08-30T01:54:35;12.30;99.90
18906;DHT22;9585;51.018;4.282;2023-08-30T01:57:03;12.30;99.90
18906;DHT22;9585;51.018;4.282;2023-08-30T01:59:31;12.20;99.90
18906;DHT22;9585;51.018;4.282;2023-08-30T02:02:00;12.10;99.90
18906;DHT22;9585;51.018;4.282;2023-08-30T02:04:30;12.00;99.90
18906;DHT22;9585;51.018;4.282;2023-08-30T02:07:02;11.90;99.90
18906;DHT22;9585;51.018;4.282;2023-08-30T02:09:37;11.90;99.90
18906;DHT22;9585;51.018;4.282;2023-08-30T02:12:12;11.90;99.90
18906;DHT22;9585;51.018;4.282;2023-08-30T02:14:45;11.90;99.90
18906;DHT22;9585;51.018;4.282;2023-08-30T02:17:16;11.80;99.90
18906;DHT22;9585;51.018;4.282;2023-08-30T02:19:45;11.80;99.90
18906;DHT22;9585;51.018;4.282;2023-08-30T02:22:12;11.80;99.90
18906;DHT22;9585;51.018;4.282;2023-08-30T02:24:40;11.80;99.90
18906;DHT22;9585;51.018;4.282;2023-08-30T02:27:08;11.80;99.90
18906;DHT22;9585;51.018;4.282;2023-08-30T02:29:35;11.80;99.90
18906;DHT22;9585;51.018;4.282;2023-08-30T02:32:03;11.80;99.90
18906;DHT22;9585;51.018;4.282;2023-08-30T02:34:32;11.70;99.90
18906;DHT22;9585;51.018;4.282;2023-08-30T02:37:01;11.70;99.90
18906;DHT22;9585;51.018;4.282;2023-08-30T02:39:29;11.60;99.90
18906;DHT22;9585;51.018;4.282;2023-08-30T02:41:57;11.70;99.90
18906;DHT22;9585;51.018;4.282;2023-08-30T02:44:24;11.70;99.90
18906;DHT22;9585;51.018;4.282;2023-08-30T02:46:52;11.80;99.90
18906;DHT22;9585;51.018;4.282;2023-08-30T02:49:40;11.80;99.90
18906;DHT22;9585;51.018;4.282;2023-08-30T02:52:08;11.80;99.90
18906;DHT22;9585;51.018;4.282;2023-08-30T02:54:35;11.90;99.90
18906;DHT22;9585;51.018;4.282;2023-08-30T02:57:03;11.90;99.90
18906;DHT22;9585;51.018;4.282;2023-08-30T02:59:31;11.90;99.90
18906;DHT22;9585;51.018;4.282;2023-08-30T03:01:58;11.90;99.90
18906;DHT22;9585;51.018;4.282;2023-08-30T03:04:27;11.90;99.90
18906;DHT22;9585;51.018;4.282;2023-08-30T03:06:56;11.90;99.90
18906;DHT22;9585;51.018;4.282;2023-08-30T03:09:24;11.80;99.90
18906;DHT22;9585;51.018;4.282;2023-08-30T03:11:51;11.80;99.90
18906;DHT22;9585;51.018;4.282;2023-08-30T03:14:19;11.90;99.90
18906;DHT22;9585;51.018;4.282;2023-08-30T03:16:47;12.00;99.90
18906;DHT22;9585;51.018;4.282;2023-08-30T03:19:15;12.00;99.90
18906;DHT22;9585;51.018;4.282;2023-08-30T03:21:43;12.10;99.90
18906;DHT22;9585;51.018;4.282;2023-08-30T03:24:13;12.20;99.90
18906;DHT22;9585;51.018;4.282;2023-08-30T03:26:43;12.20;99.90
18906;DHT22;9585;51.018;4.282;2023-08-30T03:29:10;12.20;99.90
18906;DHT22;9585;51.018;4.282;2023-08-30T03:31:38;12.20;99.90
18906;DHT22;9585;51.018;4.282;2023-08-30T03:34:06;12.30;99.90
18906;DHT22;9585;51.018;4.282;2023-08-30T03:36:33;12.30;99.90
18906;DHT22;9585;51.018;4.282;2023-08-30T03:39:01;12.40;99.90
18906;DHT22;9585;51.018;4.282;2023-08-30T03:41:30;12.40;99.90
18906;DHT22;9585;51.018;4.282;2023-08-30T03:43:57;12.50;99.90
18906;DHT22;9585;51.018;4.282;2023-08-30T03:46:25;12.30;99.90
18906;DHT22;9585;51.018;4.282;2023-08-30T03:48:53;12.30;99.90
18906;DHT22;9585;51.018;4.282;2023-08-30T03:51:21;12.40;99.90
18906;DHT22;9585;51.018;4.282;2023-08-30T03:53:49;12.40;99.90
18906;DHT22;9585;51.018;4.282;2023-08-30T03:56:17;12.40;99.90
18906;DHT22;9585;51.018;4.282;2023-08-30T03:58:46;12.40;99.90
18906;DHT22;9585;51.018;4.282;2023-08-30T04:01:14;12.40;99.90
18906;DHT22;9585;51.018;4.282;2023-08-30T04:03:42;12.50;99.90
18906;DHT22;9585;51.018;4.282;2023-08-30T04:06:09;12.50;99.90
18906;DHT22;9585;51.018;4.282;2023-08-30T04:08:37;12.60;99.90
18906;DHT22;9585;51.018;4.282;2023-08-30T04:11:04;12.60;99.90
18906;DHT22;9585;51.018;4.282;2023-08-30T04:13:32;12.60;99.90
18906;DHT22;9585;51.018;4.282;2023-08-30T04:16:02;12.60;99.90
18906;DHT22;9585;51.018;4.282;2023-08-30T04:18:30;12.60;99.90
18906;DHT22;9585;51.018;4.282;2023-08-30T04:20:58;12.70;99.90
18906;DHT22;9585;51.018;4.282;2023-08-30T04:23:28;12.60;99.90
18906;DHT22;9585;51.018;4.282;2023-08-30T04:25:55;12.60;99.90
18906;DHT22;9585;51.018;4.282;2023-08-30T04:28:23;12.60;99.90
18906;DHT22;9585;51.018;4.282;2023-08-30T04:30:53;12.60;99.90
18906;DHT22;9585;51.018;4.282;2023-08-30T04:33:23;12.50;99.90
18906;DHT22;9585;51.018;4.282;2023-08-30T04:35:51;12.60;99.90
18906;DHT22;9585;51.018;4.282;2023-08-30T04:38:18;12.60;99.90
18906;DHT22;9585;51.018;4.282;2023-08-30T04:40:47;12.60;99.90
18906;DHT22;9585;51.018;4.282;2023-08-30T04:43:14;12.60;99.90
18906;DHT22;9585;51.018;4.282;2023-08-30T04:45:42;12.70;99.90
18906;DHT22;9585;51.018;4.282;2023-08-30T04:48:10;12.70;99.90
18906;DHT22;9585;51.018;4.282;2023-08-30T04:50:39;12.60;99.90
18906;DHT22;9585;51.018;4.282;2023-08-30T04:53:07;12.70;99.90
18906;DHT22;9585;51.018;4.282;2023-08-30T04:55:35;12.70;99.90
18906;DHT22;9585;51.018;4.282;2023-08-30T04:58:02;12.60;99.90
18906;DHT22;9585;51.018;4.282;2023-08-30T05:00:31;12.60;99.90
18906;DHT22;9585;51.018;4.282;2023-08-30T05:02:58;12.40;99.90
18906;DHT22;9585;51.018;4.282;2023-08-30T05:05:26;12.30;99.90
18906;DHT22;9585;51.018;4.282;2023-08-30T05:07:55;12.10;99.90
18906;DHT22;9585;51.018;4.282;2023-08-30T05:10:23;12.00;99.90
18906;DHT22;9585;51.018;4.282;2023-08-30T05:12:51;11.90;99.90
18906;DHT22;9585;51.018;4.282;2023-08-30T05:15:18;11.80;99.90
18906;DHT22;9585;51.018;4.282;2023-08-30T05:17:46;11.80;99.90
18906;DHT22;9585;51.018;4.282;2023-08-30T05:20:14;11.90;99.90
18906;DHT22;9585;51.018;4.282;2023-08-30T05:22:41;12.00;99.90
18906;DHT22;9585;51.018;4.282;2023-08-30T05:25:10;11.90;99.90
18906;DHT22;9585;51.018;4.282;2023-08-30T05:27:39;11.90;99.90
18906;DHT22;9585;51.018;4.282;2023-08-30T05:30:07;11.90;99.90
18906;DHT22;9585;51.018;4.282;2023-08-30T05:32:35;11.90;99.90
18906;DHT22;9585;51.018;4.282;2023-08-30T05:35:04;11.80;99.90
18906;DHT22;9585;51.018;4.282;2023-08-30T05:37:31;11.80;99.90
18906;DHT22;9585;51.018;4.282;2023-08-30T05:39:59;11.90;99.90
18906;DHT22;9585;51.018;4.282;2023-08-30T05:42:29;11.90;99.90
18906;DHT22;9585;51.018;4.282;2023-08-30T05:44:55;11.90;99.90
18906;DHT22;9585;51.018;4.282;2023-08-30T05:47:23;12.00;99.90
18906;DHT22;9585;51.018;4.282;2023-08-30T05:49:51;12.20;99.90
18906;DHT22;9585;51.018;4.282;2023-08-30T05:52:19;12.20;99.90
18906;DHT22;9585;51.018;4.282;2023-08-30T05:54:47;12.20;99.90
18906;DHT22;9585;51.018;4.282;2023-08-30T05:57:14;12.30;99.90
18906;DHT22;9585;51.018;4.282;2023-08-30T05:59:43;12.40;99.90
18906;DHT22;9585;51.018;4.282;2023-08-30T06:02:11;12.40;99.90
18906;DHT22;9585;51.018;4.282;2023-08-30T06:04:39;12.30;99.90
18906;DHT22;9585;51.018;4.282;2023-08-30T06:07:07;12.40;99.90
18906;DHT22;9585;51.018;4.282;2023-08-30T06:09:34;12.30;99.90
18906;DHT22;9585;51.018;4.282;2023-08-30T06:12:02;12.30;99.90
18906;DHT22;9585;51.018;4.282;2023-08-30T06:14:29;12.40;99.90
18906;DHT22;9585;51.018;4.282;2023-08-30T06:16:58;12.40;99.90
18906;DHT22;9585;51.018;4.282;2023-08-30T06:19:26;12.40;99.90
18906;DHT22;9585;51.018;4.282;2023-08-30T06:21:53;12.40;99.90
18906;DHT22;9585;51.018;4.282;2023-08-30T06:24:20;12.50;99.90
18906;DHT22;9585;51.018;4.282;2023-08-30T06:26:48;12.60;99.90
18906;DHT22;9585;51.018;4.282;2023-08-30T06:29:16;12.60;99.90
18906;DHT22;9585;51.018;4.282;2023-08-30T06:31:44;12.70;99.90
18906;DHT22;9585;51.018;4.282;2023-08-30T06:34:13;12.70;99.90
18906;DHT22;9585;51.018;4.282;2023-08-30T06:36:41;12.80;99.90
18906;DHT22;9585;51.018;4.282;2023-08-30T06:39:08;12.80;99.90
18906;DHT22;9585;51.018;4.282;2023-08-30T06:41:36;12.80;99.90
18906;DHT22;9585;51.018;4.282;2023-08-30T06:44:04;12.80;99.90
18906;DHT22;9585;51.018;4.282;2023-08-30T06:46:31;12.70;99.90
18906;DHT22;9585;51.018;4.282;2023-08-30T06:48:59;12.70;99.90
18906;DHT22;9585;51.018;4.282;2023-08-30T06:51:28;12.70;99.90
18906;DHT22;9585;51.018;4.282;2023-08-30T06:53:55;12.70;99.90
18906;DHT22;9585;51.018;4.282;2023-08-30T06:56:26;12.70;99.90
18906;DHT22;9585;51.018;4.282;2023-08-30T06:58:53;12.70;99.90
18906;DHT22;9585;51.018;4.282;2023-08-30T07:01:21;12.80;99.90
18906;DHT22;9585;51.018;4.282;2023-08-30T07:03:49;12.80;99.90
18906;DHT22;9585;51.018;4.282;2023-08-30T07:06:16;12.80;99.90
18906;DHT22;9585;51.018;4.282;2023-08-30T07:08:45;12.80;99.90
18906;DHT22;9585;51.018;4.282;2023-08-30T07:11:13;12.90;99.90
18906;DHT22;9585;51.018;4.282;2023-08-30T07:13:40;12.90;99.90
18906;DHT22;9585;51.018;4.282;2023-08-30T07:16:08;13.00;99.90
18906;DHT22;9585;51.018;4.282;2023-08-30T07:18:35;13.10;99.90
18906;DHT22;9585;51.018;4.282;2023-08-30T07:21:03;13.20;99.90
18906;DHT22;9585;51.018;4.282;2023-08-30T07:23:30;13.10;99.90
18906;DHT22;9585;51.018;4.282;2023-08-30T07:25:59;13.20;99.90
18906;DHT22;9585;51.018;4.282;2023-08-30T07:28:27;13.30;99.90
18906;DHT22;9585;51.018;4.282;2023-08-30T07:31:02;13.30;99.90
18906;DHT22;9585;51.018;4.282;2023-08-30T07:33:30;13.30;99.90
18906;DHT22;9585;51.018;4.282;2023-08-30T07:35:57;13.30;99.90
18906;DHT22;9585;51.018;4.282;2023-08-30T07:38:25;13.30;99.90
18906;DHT22;9585;51.018;4.282;2023-08-30T07:40:53;13.40;99.90
18906;DHT22;9585;51.018;4.282;2023-08-30T07:43:23;13.40;99.90
18906;DHT22;9585;51.018;4.282;2023-08-30T07:45:50;13.50;99.90
18906;DHT22;9585;51.018;4.282;2023-08-30T07:48:18;13.60;99.90
18906;DHT22;9585;51.018;4.282;2023-08-30T07:50:45;13.60;99.90
18906;DHT22;9585;51.018;4.282;2023-08-30T07:53:13;13.60;99.90
18906;DHT22;9585;51.018;4.282;2023-08-30T07:55:40;13.60;99.90
18906;DHT22;9585;51.018;4.282;2023-08-30T07:58:08;13.60;99.90
18906;DHT22;9585;51.018;4.282;2023-08-30T08:00:37;13.90;99.90
18906;DHT22;9585;51.018;4.282;2023-08-30T08:03:06;13.90;99.90
18906;DHT22;9585;51.018;4.282;2023-08-30T08:05:33;14.00;99.90
18906;DHT22;9585;51.018;4.282;2023-08-30T08:08:03;14.10;99.90
18906;DHT22;9585;51.018;4.282;2023-08-30T08:10:32;14.30;99.90
18906;DHT22;9585;51.018;4.282;2023-08-30T08:13:00;14.50;99.90
18906;DHT22;9585;51.018;4.282;2023-08-30T08:15:28;14.70;99.90
18906;DHT22;9585;51.018;4.282;2023-08-30T08:17:59;14.90;99.90
18906;DHT22;9585;51.018;4.282;2023-08-30T08:20:28;15.00;99.90
18906;DHT22;9585;51.018;4.282;2023-08-30T08:22:55;15.20;99.90
18906;DHT22;9585;51.018;4.282;2023-08-30T08:25:23;15.30;99.90
18906;DHT22;9585;51.018;4.282;2023-08-30T08:27:51;15.80;99.90
18906;DHT22;9585;51.018;4.282;2023-08-30T08:30:18;16.30;99.90
18906;DHT22;9585;51.018;4.282;2023-08-30T08:32:46;16.50;99.90
18906;DHT22;9585;51.018;4.282;2023-08-30T08:35:16;16.40;99.90
18906;DHT22;9585;51.018;4.282;2023-08-30T08:37:43;16.50;99.90
18906;DHT22;9585;51.018;4.282;2023-08-30T08:40:11;16.60;99.90
18906;DHT22;9585;51.018;4.282;2023-08-30T08:42:38;16.90;99.90
18906;DHT22;9585;51.018;4.282;2023-08-30T08:45:07;17.30;99.90
18906;DHT22;9585;51.018;4.282;2023-08-30T08:47:37;17.80;99.90
18906;DHT22;9585;51.018;4.282;2023-08-30T08:50:06;17.90;99.90
18906;DHT22;9585;51.018;4.282;2023-08-30T08:52:35;17.80;99.90
18906;DHT22;9585;51.018;4.282;2023-08-30T08:55:04;17.30;99.90
18906;DHT22;9585;51.018;4.282;2023-08-30T08:57:31;17.10;99.90
18906;DHT22;9585;51.018;4.282;2023-08-30T08:59:59;17.00;99.90
18906;DHT22;9585;51.018;4.282;2023-08-30T09:02:28;16.90;99.90
18906;DHT22;9585;51.018;4.282;2023-08-30T09:04:56;17.00;99.90
18906;DHT22;9585;51.018;4.282;2023-08-30T09:07:25;17.00;99.90
18906;DHT22;9585;51.018;4.282;2023-08-30T09:09:55;17.00;99.90
18906;DHT22;9585;51.018;4.282;2023-08-30T09:12:23;17.00;99.90
18906;DHT22;9585;51.018;4.282;2023-08-30T09:14:54;17.00;99.90
18906;DHT22;9585;51.018;4.282;2023-08-30T09:17:22;16.90;99.90
18906;DHT22;9585;51.018;4.282;2023-08-30T09:19:49;16.80;99.90
18906;DHT22;9585;51.018;4.282;2023-08-30T09:22:17;17.10;99.90
18906;DHT22;9585;51.018;4.282;2023-08-30T09:24:44;17.20;99.90
18906;DHT22;9585;51.018;4.282;2023-08-30T09:27:13;17.30;99.90
18906;DHT22;9585;51.018;4.282;2023-08-30T09:29:41;17.50;99.90
18906;DHT22;9585;51.018;4.282;2023-08-30T09:32:10;17.50;99.90
18906;DHT22;9585;51.018;4.282;2023-08-30T09:34:45;17.30;99.90
18906;DHT22;9585;51.018;4.282;2023-08-30T09:37:20;17.30;99.90
18906;DHT22;9585;51.018;4.282;2023-08-30T09:39:49;17.40;99.90
18906;DHT22;9585;51.018;4.282;2023-08-30T09:42:19;17.40;99.90
18906;DHT22;9585;51.018;4.282;2023-08-30T09:44:46;17.30;99.90
18906;DHT22;9585;51.018;4.282;2023-08-30T09:47:14;17.20;99.90
18906;DHT22;9585;51.018;4.282;2023-08-30T09:49:44;17.20;99.90
18906;DHT22;9585;51.018;4.282;2023-08-30T09:52:15;17.20;99.90
18906;DHT22;9585;51.018;4.282;2023-08-30T09:54:43;17.20;99.90
18906;DHT22;9585;51.018;4.282;2023-08-30T09:57:12;17.30;99.90
18906;DHT22;9585;51.018;4.282;2023-08-30T09:59:42;17.40;99.90
18906;DHT22;9585;51.018;4.282;2023-08-30T10:02:10;17.40;99.90
18906;DHT22;9585;51.018;4.282;2023-08-30T10:04:39;17.50;99.90
18906;DHT22;9585;51.018;4.282;2023-08-30T10:07:07;17.80;99.90
18906;DHT22;9585;51.018;4.282;2023-08-30T10:09:35;17.90;99.90
18906;DHT22;9585;51.018;4.282;2023-08-30T10:12:05;18.00;99.90
18906;DHT22;9585;51.018;4.282;2023-08-30T10:14:33;18.10;99.90
18906;DHT22;9585;51.018;4.282;2023-08-30T10:17:03;18.10;99.90
18906;DHT22;9585;51.018;4.282;2023-08-30T10:19:34;18.20;99.90
18906;DHT22;9585;51.018;4.282;2023-08-30T10:22:05;18.20;99.90
18906;DHT22;9585;51.018;4.282;2023-08-30T10:24:39;18.00;99.90
18906;DHT22;9585;51.018;4.282;2023-08-30T10:27:08;18.00;99.90
18906;DHT22;9585;51.018;4.282;2023-08-30T10:29:37;18.10;99.90
18906;DHT22;9585;51.018;4.282;2023-08-30T10:32:08;18.00;99.90
18906;DHT22;9585;51.018;4.282;2023-08-30T10:34:36;18.00;99.90
18906;DHT22;9585;51.018;4.282;2023-08-30T10:37:07;18.00;99.90
18906;DHT22;9585;51.018;4.282;2023-08-30T10:39:36;17.90;99.90
18906;DHT22;9585;51.018;4.282;2023-08-30T10:42:10;18.00;99.90
18906;DHT22;9585;51.018;4.282;2023-08-30T10:44:48;18.10;99.90
18906;DHT22;9585;51.018;4.282;2023-08-30T10:47:22;18.30;99.90
18906;DHT22;9585;51.018;4.282;2023-08-30T10:49:53;18.40;99.90
18906;DHT22;9585;51.018;4.282;2023-08-30T10:52:21;18.30;99.90
18906;DHT22;9585;51.018;4.282;2023-08-30T10:54:49;18.50;99.90
18906;DHT22;9585;51.018;4.282;2023-08-30T10:57:19;18.50;99.90
18906;DHT22;9585;51.018;4.282;2023-08-30T11:00:10;18.20;99.90
18906;DHT22;9585;51.018;4.282;2023-08-30T11:02:44;17.90;99.90
18906;DHT22;9585;51.018;4.282;2023-08-30T11:05:12;17.60;99.90
18906;DHT22;9585;51.018;4.282;2023-08-30T11:07:39;17.70;99.90
18906;DHT22;9585;51.018;4.282;2023-08-30T11:10:07;17.90;99.90
18906;DHT22;9585;51.018;4.282;2023-08-30T11:12:35;18.20;99.90
18906;DHT22;9585;51.018;4.282;2023-08-30T11:15:03;18.50;99.90
18906;DHT22;9585;51.018;4.282;2023-08-30T11:17:31;18.60;99.90
18906;DHT22;9585;51.018;4.282;2023-08-30T11:20:07;18.70;99.90
18906;DHT22;9585;51.018;4.282;2023-08-30T11:22:36;18.50;99.90
18906;DHT22;9585;51.018;4.282;2023-08-30T11:25:04;18.30;99.90
18906;DHT22;9585;51.018;4.282;2023-08-30T11:27:32;18.00;99.90
18906;DHT22;9585;51.018;4.282;2023-08-30T11:30:00;17.80;99.90
18906;DHT22;9585;51.018;4.282;2023-08-30T11:32:32;17.80;99.90
18906;DHT22;9585;51.018;4.282;2023-08-30T11:35:02;18.10;99.90
18906;DHT22;9585;51.018;4.282;2023-08-30T11:37:30;18.30;99.90
18906;DHT22;9585;51.018;4.282;2023-08-30T11:39:58;18.10;99.90
18906;DHT22;9585;51.018;4.282;2023-08-30T11:42:26;17.70;99.90
18906;DHT22;9585;51.018;4.282;2023-08-30T11:44:53;17.50;99.90
18906;DHT22;9585;51.018;4.282;2023-08-30T11:47:22;17.50;99.90
18906;DHT22;9585;51.018;4.282;2023-08-30T11:49:52;17.60;99.90
18906;DHT22;9585;51.018;4.282;2023-08-30T11:52:22;18.00;99.90
18906;DHT22;9585;51.018;4.282;2023-08-30T11:54:51;18.40;99.90
18906;DHT22;9585;51.018;4.282;2023-08-30T11:57:19;18.70;99.90
18906;DHT22;9585;51.018;4.282;2023-08-30T11:59:46;18.90;99.90
18906;DHT22;9585;51.018;4.282;2023-08-30T12:02:16;19.10;99.90
18906;DHT22;9585;51.018;4.282;2023-08-30T12:04:45;19.20;99.90
18906;DHT22;9585;51.018;4.282;2023-08-30T12:07:23;19.30;99.90
18906;DHT22;9585;51.018;4.282;2023-08-30T12:09:50;19.40;99.90
18906;DHT22;9585;51.018;4.282;2023-08-30T12:12:18;19.40;99.90
18906;DHT22;9585;51.018;4.282;2023-08-30T12:14:54;19.50;99.90
18906;DHT22;9585;51.018;4.282;2023-08-30T12:17:22;19.60;99.90
18906;DHT22;9585;51.018;4.282;2023-08-30T12:19:55;19.30;99.90
18906;DHT22;9585;51.018;4.282;2023-08-30T12:22:36;19.00;99.90
18906;DHT22;9585;51.018;4.282;2023-08-30T12:25:04;18.90;99.90
18906;DHT22;9585;51.018;4.282;2023-08-30T12:27:42;18.80;99.90
18906;DHT22;9585;51.018;4.282;2023-08-30T12:30:10;19.00;99.90
18906;DHT22;9585;51.018;4.282;2023-08-30T12:32:38;18.90;99.90
18906;DHT22;9585;51.018;4.282;2023-08-30T12:35:06;18.80;99.90
18906;DHT22;9585;51.018;4.282;2023-08-30T12:37:35;18.60;99.90
18906;DHT22;9585;51.018;4.282;2023-08-30T12:40:04;18.20;99.90
18906;DHT22;9585;51.018;4.282;2023-08-30T12:42:33;18.20;99.90
18906;DHT22;9585;51.018;4.282;2023-08-30T12:45:14;18.60;99.90
18906;DHT22;9585;51.018;4.282;2023-08-30T12:47:42;18.40;99.90
18906;DHT22;9585;51.018;4.282;2023-08-30T12:50:10;18.30;99.90
18906;DHT22;9585;51.018;4.282;2023-08-30T12:52:39;18.10;99.90
18906;DHT22;9585;51.018;4.282;2023-08-30T12:55:07;18.10;99.90
18906;DHT22;9585;51.018;4.282;2023-08-30T12:57:34;18.20;99.90
18906;DHT22;9585;51.018;4.282;2023-08-30T13:00:02;18.60;99.90
18906;DHT22;9585;51.018;4.282;2023-08-30T13:02:30;18.90;99.90
18906;DHT22;9585;51.018;4.282;2023-08-30T13:04:57;18.90;99.90
18906;DHT22;9585;51.018;4.282;2023-08-30T13:07:25;18.80;99.90
18906;DHT22;9585;51.018;4.282;2023-08-30T13:09:54;18.60;99.90
18906;DHT22;9585;51.018;4.282;2023-08-30T13:12:22;18.50;99.90
18906;DHT22;9585;51.018;4.282;2023-08-30T13:14:50;18.40;99.90
18906;DHT22;9585;51.018;4.282;2023-08-30T13:17:17;18.50;99.90
18906;DHT22;9585;51.018;4.282;2023-08-30T13:19:45;18.60;99.90
18906;DHT22;9585;51.018;4.282;2023-08-30T13:22:13;18.60;99.90
18906;DHT22;9585;51.018;4.282;2023-08-30T13:24:40;18.70;99.90
18906;DHT22;9585;51.018;4.282;2023-08-30T13:27:09;18.70;99.90
18906;DHT22;9585;51.018;4.282;2023-08-30T13:29:37;18.50;99.90
18906;DHT22;9585;51.018;4.282;2023-08-30T13:32:05;18.40;99.90
18906;DHT22;9585;51.018;4.282;2023-08-30T13:34:33;18.10;99.90
18906;DHT22;9585;51.018;4.282;2023-08-30T13:37:01;17.90;99.90
18906;DHT22;9585;51.018;4.282;2023-08-30T13:39:29;17.70;99.90
18906;DHT22;9585;51.018;4.282;2023-08-30T13:41:56;17.50;99.90
18906;DHT22;9585;51.018;4.282;2023-08-30T13:44:25;17.40;99.90
18906;DHT22;9585;51.018;4.282;2023-08-30T13:46:53;17.30;99.90
18906;DHT22;9585;51.018;4.282;2023-08-30T13:49:20;17.30;99.90
18906;DHT22;9585;51.018;4.282;2023-08-30T13:51:48;17.20;99.90
18906;DHT22;9585;51.018;4.282;2023-08-30T13:54:15;17.10;99.90
18906;DHT22;9585;51.018;4.282;2023-08-30T13:56:43;17.00;99.90
18906;DHT22;9585;51.018;4.282;2023-08-30T13:59:10;16.90;99.90
18906;DHT22;9585;51.018;4.282;2023-08-30T14:01:40;17.00;99.90
18906;DHT22;9585;51.018;4.282;2023-08-30T14:04:07;17.10;99.90
18906;DHT22;9585;51.018;4.282;2023-08-30T14:06:35;17.30;99.90
18906;DHT22;9585;51.018;4.282;2023-08-30T14:09:03;17.50;99.90
18906;DHT22;9585;51.018;4.282;2023-08-30T14:11:32;17.60;99.90
18906;DHT22;9585;51.018;4.282;2023-08-30T14:14:01;17.60;99.90
18906;DHT22;9585;51.018;4.282;2023-08-30T14:16:28;17.60;99.90
18906;DHT22;9585;51.018;4.282;2023-08-30T14:18:57;17.40;99.90
18906;DHT22;9585;51.018;4.282;2023-08-30T14:21:26;17.20;99.90
18906;DHT22;9585;51.018;4.282;2023-08-30T14:23:55;17.10;99.90
18906;DHT22;9585;51.018;4.282;2023-08-30T14:26:22;17.20;99.90
18906;DHT22;9585;51.018;4.282;2023-08-30T14:28:50;17.30;99.90
18906;DHT22;9585;51.018;4.282;2023-08-30T14:31:17;17.40;99.90
18906;DHT22;9585;51.018;4.282;2023-08-30T14:33:45;17.30;99.90
18906;DHT22;9585;51.018;4.282;2023-08-30T14:36:14;17.30;99.90
18906;DHT22;9585;51.018;4.282;2023-08-30T14:38:42;17.20;99.90
18906;DHT22;9585;51.018;4.282;2023-08-30T14:41:10;17.10;99.90
18906;DHT22;9585;51.018;4.282;2023-08-30T14:43:38;17.20;99.90
18906;DHT22;9585;51.018;4.282;2023-08-30T14:46:06;17.40;99.90
18906;DHT22;9585;51.018;4.282;2023-08-30T14:48:34;17.60;99.90
18906;DHT22;9585;51.018;4.282;2023-08-30T14:51:05;17.70;99.90
18906;DHT22;9585;51.018;4.282;2023-08-30T14:53:34;17.70;99.90
18906;DHT22;9585;51.018;4.282;2023-08-30T14:56:02;17.80;99.90
18906;DHT22;9585;51.018;4.282;2023-08-30T14:58:33;18.10;99.90
18906;DHT22;9585;51.018;4.282;2023-08-30T15:01:01;18.30;99.90
18906;DHT22;9585;51.018;4.282;2023-08-30T15:03:29;18.40;99.90
18906;DHT22;9585;51.018;4.282;2023-08-30T15:05:57;18.40;99.90
18906;DHT22;9585;51.018;4.282;2023-08-30T15:08:24;18.20;99.90
18906;DHT22;9585;51.018;4.282;2023-08-30T15:10:54;18.20;99.90
18906;DHT22;9585;51.018;4.282;2023-08-30T15:13:23;18.00;99.90
18906;DHT22;9585;51.018;4.282;2023-08-30T15:15:51;17.80;99.90
18906;DHT22;9585;51.018;4.282;2023-08-30T15:18:22;17.70;99.90
18906;DHT22;9585;51.018;4.282;2023-08-30T15:20:51;17.60;99.90
18906;DHT22;9585;51.018;4.282;2023-08-30T15:23:19;17.70;99.90
18906;DHT22;9585;51.018;4.282;2023-08-30T15:25:47;17.80;99.90
18906;DHT22;9585;51.018;4.282;2023-08-30T15:28:17;17.70;99.90
18906;DHT22;9585;51.018;4.282;2023-08-30T15:30:46;17.50;99.90
18906;DHT22;9585;51.018;4.282;2023-08-30T15:33:16;17.60;99.90
18906;DHT22;9585;51.018;4.282;2023-08-30T15:35:44;17.60;99.90
18906;DHT22;9585;51.018;4.282;2023-08-30T15:38:12;17.50;99.90
18906;DHT22;9585;51.018;4.282;2023-08-30T15:40:40;17.40;99.90
18906;DHT22;9585;51.018;4.282;2023-08-30T15:43:07;17.30;99.90
18906;DHT22;9585;51.018;4.282;2023-08-30T15:45:39;17.10;99.90
18906;DHT22;9585;51.018;4.282;2023-08-30T15:48:08;17.00;99.90
18906;DHT22;9585;51.018;4.282;2023-08-30T15:50:35;16.80;99.90
18906;DHT22;9585;51.018;4.282;2023-08-30T15:53:03;16.70;99.90